Aeroporto :
LOGIN :

Iscrizione | Disclaimer

   EN    FR    IT 

 










Sommario :    VFR   VFR Marginale   IFR   IFR Intensivo   IFR Molto Intensivo
Visibilità : 
Base nubi : 
>= 8 km
>= 3000ft
5 / 8 km
1000 / 3000 ft
1500m / 5 km
500 / 1000 ft
800 / 1500m
200 / 500 ft
< 800m
< 200 ft
Simboli :   Temporali  Nebbia  Neve Forte  Precipitazioni Forti  Vento > 20 kt
SIGMETs :   Varie  Temporali  Ghiacco  Turbolenza  Onda orograficha  Ceneri Vulcaniche






- Altitudine del aeroporto : 659 ft
- Codice IATA : LYN


LFLY - Lyon Bron

ULTIMO METAR :
  • 220000Z AUTO 33010KT 9999 BKN012 03/02 Q1019 TEMPO NSC

METARs OBSOLETI :
  • 212330Z AUTO 33008KT 9999 BKN013 03/02 Q1020 TEMPO NSC
  • 212300Z AUTO 32007KT 9999 FEW015 03/02 Q1020 NOSIG
  • 212230Z AUTO 33007KT CAVOK 03/01 Q1020 NOSIG
  • 212200Z AUTO 33010KT CAVOK 03/02 Q1020 NOSIG
  • 212130Z AUTO 33011KT CAVOK 04/01 Q1020 NOSIG
  • 212100Z AUTO 34010KT CAVOK 04/01 Q1020 NOSIG
  • 212030Z AUTO 33010KT CAVOK 04/02 Q1020 NOSIG
  • 212000Z AUTO 35008KT 9999 FEW028 SCT034 BKN066 05/02 Q1020 TEMPO 4000 SHRA FEW027CB SCT030TCU
  • 211930Z AUTO 34010KT 9999 FEW023 BKN034 BKN041 05/03 Q1020 TEMPO 4000 SHRA FEW027CB SCT030TCU

TAF TAF LFLY
Valido dal 22 a 00 ore il 23 a 00 ore UTC


212300Z 2200/2224 35010KT CAVOK
TEMPO 2201/2207 BKN014
TEMPO 2209/2212 35020G30KT
TEMPO 2212/2218 35023G33KT -SHRA SCT030TCU
PROB30
TEMPO 2212/2218 2000 SHGS SCT027CB
ATIS : +33 4 72 15 87 96



MetMap, La meteo Aeronautica in un colpo d'occhio ! - Copyright ORBIFLY Dicembre 2007 - Disclaimer

ORBIFLY MET'MAP TEAM :

Programmazione e sviluppo : Alexandra Zaïnal
Concezione : Baudouin d'Aumeries
Supporto tecnico e logistico : Manuel Goepfert
Aiuto : Marc-Olivier Méhu
Aiuto per la traduzione : Arnaldo La Scala




FONTI E CREDITI :

   NOAA